createdAt,value
2018-06-20T00:00:12.284Z,97222.91
2018-06-20T00:03:36.985Z,97223.75
2018-06-20T00:07:01.582Z,97219.14
2018-06-20T00:10:29.884Z,97218.16
2018-06-20T00:13:55.543Z,97211.50
2018-06-20T00:17:20.229Z,97213.61
2018-06-20T00:20:44.913Z,97210.03
2018-06-20T00:24:09.576Z,97205.36
2018-06-20T00:27:33.875Z,97205.86
2018-06-20T00:30:58.509Z,97202.94
2018-06-20T00:34:23.286Z,97198.80
2018-06-20T00:37:47.924Z,97199.28
2018-06-20T00:41:12.617Z,97197.31
2018-06-20T00:44:37.369Z,97190.17
2018-06-20T00:48:02.008Z,97194.66
2018-06-20T00:51:26.657Z,97188.36
2018-06-20T00:54:51.255Z,97187.45
2018-06-20T00:58:15.837Z,97186.59
2018-06-20T01:01:40.456Z,97187.27
2018-06-20T01:05:05.928Z,97187.66
2018-06-20T01:08:30.544Z,97194.64
2018-06-20T01:11:55.249Z,97194.92
2018-06-20T01:15:19.854Z,97192.30
2018-06-20T01:18:44.452Z,97190.51
2018-06-20T01:22:09.174Z,97196.09
2018-06-20T01:25:33.846Z,97201.56
2018-06-20T01:28:58.574Z,97195.66
2018-06-20T01:32:23.232Z,97197.41
2018-06-20T01:35:47.842Z,97191.97
2018-06-20T01:39:12.704Z,97193.49
2018-06-20T01:42:37.138Z,97190.01
2018-06-20T01:46:01.813Z,97189.26
2018-06-20T01:49:26.612Z,97189.63
2018-06-20T01:52:51.253Z,97183.45
2018-06-20T01:56:15.868Z,97182.61
2018-06-20T01:59:40.568Z,97187.73
2018-06-20T02:03:05.206Z,97184.92
2018-06-20T02:06:29.894Z,97183.63
2018-06-20T02:09:54.556Z,97183.01
2018-06-20T02:13:19.226Z,97185.53
2018-06-20T02:16:43.928Z,97179.04
2018-06-20T02:20:08.641Z,97178.64
2018-06-20T02:23:33.290Z,97172.28
2018-06-20T02:26:57.910Z,97168.99
2018-06-20T02:30:22.551Z,97167.28
2018-06-20T02:33:47.195Z,97171.70
2018-06-20T02:37:11.501Z,97170.61
2018-06-20T02:40:36.186Z,97169.45
2018-06-20T02:44:00.845Z,97175.58
2018-06-20T02:47:30.743Z,97175.95
2018-06-20T02:50:55.408Z,97165.80
2018-06-20T02:54:20.232Z,97174.23
2018-06-20T02:57:44.913Z,97167.71
2018-06-20T03:01:09.598Z,97165.77
2018-06-20T03:04:34.035Z,97166.64
2018-06-20T03:07:58.699Z,97161.74
2018-06-20T03:11:23.394Z,97164.41
2018-06-20T03:14:48.043Z,97170.42
2018-06-20T03:18:12.696Z,97170.20
2018-06-20T03:21:37.374Z,97166.48
2018-06-20T03:25:02.043Z,97167.17
2018-06-20T03:28:26.798Z,97168.95
2018-06-20T03:31:51.477Z,97164.33
2018-06-20T03:35:16.121Z,97169.80
2018-06-20T03:38:40.760Z,97170.47
2018-06-20T03:42:05.425Z,97168.25
2018-06-20T03:45:29.758Z,97163.20
2018-06-20T03:48:54.733Z,97172.75
2018-06-20T03:52:19.448Z,97177.27
2018-06-20T03:55:44.070Z,97177.65
2018-06-20T03:59:08.737Z,97183.06
2018-06-20T04:02:33.377Z,97177.37
2018-06-20T04:05:58.023Z,97176.91
2018-06-20T04:09:22.629Z,97187.42
2018-06-20T04:12:46.989Z,97186.53
2018-06-20T04:16:11.613Z,97191.15
2018-06-20T04:19:35.900Z,97189.20
2018-06-20T04:23:00.629Z,97192.16
2018-06-20T04:26:25.333Z,97194.53
2018-06-20T04:29:49.977Z,97195.28
2018-06-20T04:33:14.646Z,97195.04
2018-06-20T04:36:39.213Z,97189.51
2018-06-20T04:40:03.925Z,97186.62
2018-06-20T04:43:28.540Z,97188.13
2018-06-20T04:46:54.196Z,97191.62
2018-06-20T04:50:18.754Z,97193.28
2018-06-20T04:53:43.421Z,97191.53
2018-06-20T04:57:08.044Z,97189.29
2018-06-20T05:00:32.324Z,97187.16
2018-06-20T05:03:56.598Z,97192.53
2018-06-20T05:07:21.272Z,97196.81
2018-06-20T05:10:45.558Z,97185.70
2018-06-20T05:14:10.250Z,97191.16
2018-06-20T05:17:34.839Z,97191.16
2018-06-20T05:20:59.455Z,97193.19
2018-06-20T05:24:24.212Z,97192.48
2018-06-20T05:27:48.838Z,97197.72
2018-06-20T05:31:13.451Z,97206.31
2018-06-20T05:34:38.125Z,97198.00
2018-06-20T05:38:02.726Z,97203.63
2018-06-20T05:41:27.345Z,97195.44
2018-06-20T05:44:51.939Z,97201.38
2018-06-20T05:48:16.572Z,97194.62
2018-06-20T05:51:41.221Z,97194.35
2018-06-20T05:55:05.972Z,97201.61
2018-06-20T05:58:30.612Z,97201.23
2018-06-20T06:01:55.005Z,97196.16
2018-06-20T06:05:19.709Z,97195.02
2018-06-20T06:08:45.005Z,97198.66
2018-06-20T06:12:09.715Z,97188.84
2018-06-20T06:15:34.355Z,97193.09
2018-06-20T06:18:59.007Z,97192.68
2018-06-20T06:22:23.596Z,97195.18
2018-06-20T06:25:48.264Z,97187.90
2018-06-20T06:29:12.871Z,97182.19
2018-06-20T06:32:37.574Z,97186.83
2018-06-20T06:36:02.268Z,97179.78
2018-06-20T06:39:26.915Z,97187.54
2018-06-20T06:42:51.601Z,97181.56
2018-06-20T06:46:16.239Z,97175.94
2018-06-20T06:49:41.111Z,97174.11
2018-06-20T06:53:05.777Z,97168.36
2018-06-20T06:56:30.529Z,97169.31
2018-06-20T06:59:55.180Z,97167.17
2018-06-20T07:03:19.817Z,97166.24
2018-06-20T07:06:44.474Z,97166.19
2018-06-20T07:10:09.145Z,97163.42
2018-06-20T07:13:33.749Z,97169.62
2018-06-20T07:16:58.482Z,97174.83
2018-06-20T07:20:23.145Z,97170.56
2018-06-20T07:23:47.757Z,97164.78
2018-06-20T07:27:12.445Z,97165.58
2018-06-20T07:30:37.063Z,97168.54
2018-06-20T07:34:01.757Z,97164.86
2018-06-20T07:37:26.739Z,97164.45
2018-06-20T07:40:51.358Z,97149.92
2018-06-20T07:44:16.059Z,97157.06
2018-06-20T07:47:40.751Z,97151.95
2018-06-20T07:51:05.114Z,97150.50
2018-06-20T07:54:29.907Z,97148.67
2018-06-20T07:57:54.638Z,97145.10
2018-06-20T08:01:41.519Z,97149.93
2018-06-20T08:05:11.772Z,97141.27
2018-06-20T08:08:41.945Z,97137.92
2018-06-20T08:12:12.460Z,97141.41
2018-06-20T08:15:43.853Z,97142.94
2018-06-20T08:19:13.805Z,97143.80
2018-06-20T08:22:38.571Z,97141.97
2018-06-20T08:26:03.299Z,97139.67
2018-06-20T08:29:27.944Z,97137.63
2018-06-20T08:32:52.688Z,97136.11
2018-06-20T08:36:17.370Z,97128.10
2018-06-20T08:39:41.997Z,97135.73
2018-06-20T08:43:06.638Z,97128.75
2018-06-20T08:46:31.277Z,97128.66
2018-06-20T08:49:56.343Z,97127.02
2018-06-20T08:53:21.029Z,97130.31
2018-06-20T08:56:45.746Z,97125.88
2018-06-20T09:00:10.410Z,97124.60
2018-06-20T09:03:35.299Z,97125.16
2018-06-20T09:08:08.950Z,97128.19
2018-06-20T09:11:38.938Z,97119.56
2018-06-20T09:15:09.078Z,97117.92
2018-06-20T09:18:39.042Z,97124.75
2018-06-20T09:22:03.790Z,97119.63
2018-06-20T09:25:28.165Z,97113.27
2018-06-20T09:28:52.920Z,97122.98
2018-06-20T09:32:17.222Z,97119.14
2018-06-20T09:35:41.927Z,97111.62
2018-06-20T09:39:08.508Z,97114.46
2018-06-20T09:42:33.134Z,97111.91
2018-06-20T09:45:57.806Z,97118.97
2018-06-20T09:49:23.612Z,97112.86
2018-06-20T09:52:48.606Z,97114.61
2018-06-20T09:56:14.108Z,97113.62
2018-06-20T09:59:44.318Z,97116.00
2018-06-20T10:03:14.188Z,97113.73
2018-06-20T10:06:44.282Z,97107.34
2018-06-20T10:10:13.986Z,97113.04
2018-06-20T10:13:44.721Z,97108.12
2018-06-20T10:17:09.101Z,97097.45
2018-06-20T10:20:33.746Z,97103.73
2018-06-20T10:23:58.568Z,97105.05
2018-06-20T10:27:22.975Z,97097.41
2018-06-20T10:30:47.622Z,97089.70
2018-06-20T10:34:12.303Z,97097.19
2018-06-20T10:37:36.898Z,97091.16
2018-06-20T10:41:01.219Z,97096.03
2018-06-20T10:44:25.818Z,97091.77
2018-06-20T10:47:51.600Z,97084.31
2018-06-20T10:51:15.971Z,97078.75
2018-06-20T10:54:40.681Z,97079.34
2018-06-20T10:58:11.283Z,97080.08
2018-06-20T11:01:41.267Z,97081.41
2018-06-20T11:05:11.370Z,97079.89
2018-06-20T11:08:41.503Z,97072.07
2018-06-20T11:12:11.296Z,97064.55
2018-06-20T11:15:36.198Z,97066.94
2018-06-20T11:19:00.874Z,97058.13
2018-06-20T11:22:25.223Z,97060.09
2018-06-20T11:25:49.892Z,97052.25
2018-06-20T11:29:14.774Z,97050.09
2018-06-20T11:32:39.328Z,97045.66
2018-06-20T11:36:03.961Z,97046.98
2018-06-20T11:39:28.831Z,97042.98
2018-06-20T11:42:53.556Z,97036.42
2018-06-20T11:47:28.100Z,97034.59
2018-06-20T11:50:52.744Z,97038.20
2018-06-20T11:54:17.410Z,97026.17
2018-06-20T11:57:41.719Z,97024.75
2018-06-20T12:02:11.586Z,97027.31
2018-06-20T12:06:44.196Z,97022.06
2018-06-20T12:10:14.346Z,97016.95
2018-06-20T12:13:44.379Z,97013.58
2018-06-20T12:17:08.081Z,97009.65
2018-06-20T12:20:38.804Z,97005.48
2018-06-20T12:24:08.924Z,96997.63
2018-06-20T12:27:39.236Z,96996.88
2018-06-20T12:31:09.271Z,96988.15
2018-06-20T12:34:40.414Z,96989.48
2018-06-20T12:38:10.340Z,96984.72
2018-06-20T12:41:40.305Z,96993.73
2018-06-20T12:45:06.317Z,96985.91
2018-06-20T12:48:31.037Z,96975.69
2018-06-20T12:51:55.678Z,96976.52
2018-06-20T12:55:20.434Z,96974.54
2018-06-20T12:58:45.123Z,96968.05
2018-06-20T13:02:09.784Z,96969.21
2018-06-20T13:05:34.493Z,96967.30
2018-06-20T13:08:58.855Z,96970.42
2018-06-20T13:12:23.504Z,96963.28
2018-06-20T13:15:48.164Z,96965.96
2018-06-20T13:19:12.856Z,96954.92
2018-06-20T13:22:37.479Z,96954.38
2018-06-20T13:26:02.163Z,96954.53
2018-06-20T13:29:26.438Z,96947.22
2018-06-20T13:32:56.359Z,96948.46
2018-06-20T13:36:26.045Z,96944.94
2018-06-20T13:39:55.997Z,96939.75
2018-06-20T13:43:25.923Z,96934.73
2018-06-20T13:46:55.764Z,96931.73
2018-06-20T13:50:20.402Z,96930.67
2018-06-20T13:53:45.032Z,96922.23
2018-06-20T13:57:09.653Z,96930.52
2018-06-20T14:00:34.286Z,96926.39
2018-06-20T14:03:58.938Z,96925.30
2018-06-20T14:07:23.355Z,96923.09
2018-06-20T14:10:47.943Z,96922.17
2018-06-20T14:14:12.834Z,96908.34
2018-06-20T14:17:38.172Z,96914.77
2018-06-20T14:21:08.009Z,96914.95
2018-06-20T14:24:32.752Z,96909.62
2018-06-20T14:27:57.428Z,96911.02
2018-06-20T14:31:27.856Z,96904.53
2018-06-20T14:34:58.203Z,96903.83
2018-06-20T14:38:29.070Z,96898.23
2018-06-20T14:41:59.175Z,96891.87
2018-06-20T14:45:29.221Z,96890.92
2018-06-20T14:48:53.640Z,96887.62
2018-06-20T14:52:18.326Z,96881.01
2018-06-20T14:55:43.055Z,96881.93
2018-06-20T14:59:07.764Z,96889.80
2018-06-20T15:02:32.466Z,96879.45
2018-06-20T15:05:57.586Z,96873.12
2018-06-20T15:09:22.306Z,96879.66
2018-06-20T15:12:47.076Z,96874.91
2018-06-20T15:16:17.028Z,96864.99
2018-06-20T15:19:41.709Z,96872.69
2018-06-20T15:23:06.450Z,96864.81
2018-06-20T15:26:36.567Z,96867.22
2018-06-20T15:30:06.448Z,96858.94
2018-06-20T15:33:36.308Z,96848.89
2018-06-20T15:37:06.341Z,96847.03
2018-06-20T15:40:31.063Z,96844.00
2018-06-20T15:43:55.727Z,96837.43
2018-06-20T15:47:20.420Z,96842.00
2018-06-20T15:50:45.164Z,96834.77
2018-06-20T15:54:09.916Z,96833.00
2018-06-20T15:57:34.726Z,96827.45
2018-06-20T16:00:59.524Z,96832.11
2018-06-20T16:04:24.209Z,96823.08
2018-06-20T16:07:49.255Z,96816.71
2018-06-20T16:11:13.921Z,96822.03
2018-06-20T16:14:38.614Z,96831.61
2018-06-20T16:18:03.313Z,96813.54
2018-06-20T16:21:33.392Z,96823.85
2018-06-20T16:25:03.446Z,96818.04
2018-06-20T16:28:33.357Z,96813.20
2018-06-20T16:31:58.113Z,96809.77
2018-06-20T16:35:22.802Z,96816.13
2018-06-20T16:38:47.525Z,96811.53
2018-06-20T16:42:12.156Z,96809.88
2018-06-20T16:45:36.841Z,96812.04
2018-06-20T16:49:01.625Z,96805.53
2018-06-20T16:52:26.508Z,96805.59
2018-06-20T16:55:51.135Z,96805.58
2018-06-20T16:59:15.905Z,96801.66
2018-06-20T17:02:41.864Z,96800.53
2018-06-20T17:06:06.544Z,96811.86
2018-06-20T17:09:31.173Z,96807.59
2018-06-20T17:13:01.132Z,96806.44
2018-06-20T17:16:31.069Z,96816.73
2018-06-20T17:20:00.759Z,96818.92
2018-06-20T17:23:30.739Z,96813.49
2018-06-20T17:26:55.394Z,96815.70
2018-06-20T17:30:20.026Z,96806.12
2018-06-20T17:33:44.791Z,96803.38
2018-06-20T17:37:09.448Z,96804.78
2018-06-20T17:40:34.175Z,96805.47
2018-06-20T17:43:58.512Z,96805.91
2018-06-20T17:47:23.334Z,96810.56
2018-06-20T17:50:48.016Z,96797.58
2018-06-20T17:54:12.617Z,96796.95
2018-06-20T17:57:37.599Z,96800.87
2018-06-20T18:01:07.506Z,96797.88
2018-06-20T18:04:37.440Z,96796.65
2018-06-20T18:08:07.107Z,96795.72
2018-06-20T18:11:37.108Z,96802.30
2018-06-20T18:15:07.024Z,96800.27
2018-06-20T18:18:32.654Z,96803.61
2018-06-20T18:21:57.632Z,96799.80
2018-06-20T18:25:22.279Z,96799.86
2018-06-20T18:28:46.953Z,96800.55
2018-06-20T18:32:11.243Z,96797.13
2018-06-20T18:35:36.377Z,96802.20
2018-06-20T18:39:01.869Z,96800.70
2018-06-20T18:42:26.595Z,96791.63
2018-06-20T18:45:51.276Z,96787.00
2018-06-20T18:49:15.996Z,96793.67
2018-06-20T18:52:40.716Z,96803.17
2018-06-20T18:56:05.586Z,96807.63
2018-06-20T18:59:35.739Z,96798.05
2018-06-20T19:03:06.320Z,96807.36
2018-06-20T19:06:36.307Z,96807.42
2018-06-20T19:10:02.898Z,96808.43
2018-06-20T19:13:27.719Z,96809.18
2018-06-20T19:16:52.456Z,96804.81
2018-06-20T19:20:17.111Z,96807.75
2018-06-20T19:23:41.802Z,96822.47
2018-06-20T19:27:06.554Z,96813.86
2018-06-20T19:30:31.347Z,96815.67
2018-06-20T19:33:56.022Z,96818.06
2018-06-20T19:37:20.741Z,96823.08
2018-06-20T19:40:46.545Z,96827.59
2018-06-20T19:44:33.032Z,96830.27
2018-06-20T19:47:58.206Z,96830.45
2018-06-20T19:51:23.291Z,96838.56
2018-06-20T19:54:49.830Z,96838.72
2018-06-20T19:58:16.205Z,96845.03
2018-06-20T20:01:41.678Z,96848.96
2018-06-20T20:05:07.475Z,96844.83
2018-06-20T20:17:36.145Z,96844.09
2018-06-20T20:21:02.663Z,96860.30
2018-06-20T20:24:28.043Z,96863.42
2018-06-20T20:27:53.034Z,96860.88
2018-06-20T20:31:19.057Z,96867.97
2018-06-20T20:34:43.721Z,96870.55
2018-06-20T20:38:08.364Z,96866.88
2018-06-20T20:41:32.756Z,96868.84
2018-06-20T20:44:57.354Z,96867.70
2018-06-20T20:48:22.176Z,96866.68
2018-06-20T20:51:47.726Z,96861.11
2018-06-20T20:55:12.423Z,96867.38
2018-06-20T20:58:37.151Z,96863.20
2018-06-20T21:02:01.847Z,96866.20
2018-06-20T21:05:26.816Z,96873.36
2018-06-20T21:08:52.641Z,96873.52
2018-06-20T21:12:16.913Z,96871.88
2018-06-20T21:15:41.697Z,96871.69
2018-06-20T21:19:06.542Z,96874.63
2018-06-20T21:22:30.865Z,96883.17
2018-06-20T21:25:55.512Z,96877.28
2018-06-20T21:29:20.209Z,96877.80
2018-06-20T21:32:44.881Z,96868.64
2018-06-20T21:36:09.233Z,96869.05
2018-06-20T21:39:34.020Z,96868.54
2018-06-20T21:42:58.779Z,96863.41
2018-06-20T21:46:23.573Z,96858.20
2018-06-20T21:49:48.412Z,96860.79
2018-06-20T21:53:13.137Z,96858.26
2018-06-20T21:56:37.719Z,96861.01
2018-06-20T22:00:02.533Z,96858.58
2018-06-20T22:03:27.307Z,96852.58
2018-06-20T22:06:52.133Z,96851.30
2018-06-20T22:10:16.529Z,96853.96
2018-06-20T22:13:40.821Z,96851.23
2018-06-20T22:17:05.559Z,96855.26
2018-06-20T22:20:30.387Z,96844.58
2018-06-20T22:23:55.793Z,96848.41
2018-06-20T22:27:20.666Z,96857.46
2018-06-20T22:30:45.417Z,96846.06
2018-06-20T22:34:09.742Z,96842.13
2018-06-20T22:37:34.485Z,96845.19
2018-06-20T22:40:59.262Z,96849.48
2018-06-20T22:44:24.044Z,96839.49
2018-06-20T22:47:48.846Z,96833.91
2018-06-20T22:51:13.566Z,96839.97
2018-06-20T22:54:38.242Z,96841.68
2018-06-20T22:58:02.956Z,96838.98
2018-06-20T23:01:27.720Z,96832.91
2018-06-20T23:04:52.507Z,96831.33
2018-06-20T23:08:17.167Z,96830.37
2018-06-20T23:11:47.387Z,96823.98
2018-06-20T23:15:12.238Z,96823.76
2018-06-20T23:18:36.928Z,96829.17
2018-06-20T23:22:01.668Z,96829.05
2018-06-20T23:25:26.022Z,96827.23
2018-06-20T23:28:50.697Z,96820.44
2018-06-20T23:32:15.342Z,96818.00
2018-06-20T23:35:39.978Z,96819.83
2018-06-20T23:39:07.012Z,96824.58
2018-06-20T23:42:31.676Z,96821.12
2018-06-20T23:45:56.390Z,96818.44
2018-06-20T23:49:21.016Z,96819.84
2018-06-20T23:52:45.784Z,96811.48
2018-06-20T23:56:10.586Z,96817.25
2018-06-20T23:59:35.019Z,96818.56
